createdAt,value
2023-04-19T00:02:21.123Z,100.00
2023-04-19T00:07:22.016Z,100.00
2023-04-19T00:12:22.884Z,100.00
2023-04-19T00:17:23.745Z,100.00
2023-04-19T00:22:25.423Z,100.00
2023-04-19T00:27:26.190Z,100.00
2023-04-19T00:32:27.326Z,100.00
2023-04-19T00:37:28.148Z,100.00
2023-04-19T00:42:29.197Z,100.00
2023-04-19T00:47:30.075Z,100.00
2023-04-19T00:52:33.427Z,100.00
2023-04-19T00:57:34.495Z,100.00
2023-04-19T01:02:35.867Z,100.00
2023-04-19T01:07:36.842Z,100.00
2023-04-19T01:12:37.673Z,100.00
2023-04-19T01:17:38.827Z,100.00
2023-04-19T01:22:39.862Z,100.00
2023-04-19T01:27:40.627Z,100.00
2023-04-19T01:32:41.879Z,100.00
2023-04-19T01:37:42.648Z,100.00
2023-04-19T01:42:44.145Z,100.00
2023-04-19T01:47:45.052Z,100.00
2023-04-19T01:52:45.998Z,100.00
2023-04-19T01:57:46.782Z,100.00
2023-04-19T02:02:47.910Z,100.00
2023-04-19T02:07:49.737Z,100.00
2023-04-19T02:12:50.493Z,100.00
2023-04-19T02:17:51.333Z,100.00
2023-04-19T02:22:53.162Z,100.00
2023-04-19T02:27:54.099Z,100.00
2023-04-19T02:32:55.532Z,100.00
2023-04-19T02:37:56.678Z,100.00
2023-04-19T02:43:00.786Z,100.00
2023-04-19T02:48:01.740Z,100.00
2023-04-19T02:53:02.782Z,100.00
2023-04-19T02:58:04.804Z,100.00
2023-04-19T03:03:08.984Z,100.00
2023-04-19T03:08:10.356Z,100.00
2023-04-19T03:13:11.431Z,100.00
2023-04-19T03:18:12.273Z,100.00
2023-04-19T03:23:15.632Z,100.00
2023-04-19T03:28:16.924Z,100.00
2023-04-19T03:33:44.486Z,100.00
2023-04-19T03:38:46.282Z,100.00
2023-04-19T03:43:52.038Z,100.00
2023-04-19T03:48:54.071Z,100.00
2023-04-19T03:53:56.356Z,100.00
2023-04-19T03:58:57.500Z,100.00
2023-04-19T04:03:58.585Z,100.00
2023-04-19T04:09:00.255Z,100.00
2023-04-19T04:14:01.565Z,100.00
2023-04-19T04:19:05.315Z,100.00
2023-04-19T04:24:07.665Z,100.00
2023-04-19T04:29:14.341Z,100.00
2023-04-19T04:34:15.526Z,100.00
2023-04-19T04:39:22.870Z,100.00
2023-04-19T04:44:23.879Z,100.00
2023-04-19T04:49:26.015Z,100.00
2023-04-19T04:54:27.048Z,100.00
2023-04-19T04:59:29.183Z,100.00
2023-04-19T05:04:31.683Z,100.00
2023-04-19T05:09:32.561Z,100.00
2023-04-19T05:14:33.702Z,100.00
2023-04-19T05:19:35.108Z,100.00
2023-04-19T05:24:41.818Z,100.00
2023-04-19T05:29:43.822Z,100.00
2023-04-19T05:34:45.051Z,100.00
2023-04-19T05:39:47.813Z,100.00
2023-04-19T05:44:48.647Z,100.00
2023-04-19T05:49:50.546Z,100.00
2023-04-19T05:55:07.541Z,100.00
2023-04-19T06:00:09.748Z,100.00
2023-04-19T06:05:29.968Z,100.00
2023-04-19T06:10:40.256Z,100.00
2023-04-19T06:15:50.276Z,100.00
2023-04-19T06:20:53.105Z,100.00
2023-04-19T06:25:53.964Z,100.00
2023-04-19T06:30:54.784Z,100.00
2023-04-19T06:35:55.535Z,100.00
2023-04-19T06:40:56.420Z,100.00
2023-04-19T06:46:00.880Z,100.00
2023-04-19T06:51:01.812Z,100.00
2023-04-19T06:56:04.015Z,100.00
2023-04-19T07:01:05.097Z,100.00
2023-04-19T07:06:06.324Z,100.00
2023-04-19T07:11:07.121Z,100.00
2023-04-19T07:16:07.924Z,100.00
2023-04-19T07:21:09.212Z,100.00
2023-04-19T07:26:10.198Z,100.00
2023-04-19T07:31:16.048Z,100.00
2023-04-19T07:36:16.864Z,100.00
2023-04-19T07:41:17.674Z,100.00
2023-04-19T07:46:18.615Z,100.00
2023-04-19T07:51:19.883Z,100.00
2023-04-19T07:56:22.195Z,100.00
2023-04-19T08:01:23.045Z,100.00
2023-04-19T08:06:23.923Z,100.00
2023-04-19T08:11:24.687Z,100.00
2023-04-19T08:16:56.289Z,100.00
2023-04-19T08:22:12.228Z,100.00
2023-04-19T08:27:13.086Z,100.00
2023-04-19T08:32:13.952Z,100.00
2023-04-19T08:37:15.211Z,100.00
2023-04-19T08:42:28.627Z,100.00
2023-04-19T08:47:48.533Z,100.00
2023-04-19T08:53:12.055Z,100.00
2023-04-19T08:58:36.558Z,99.45
2023-04-19T09:03:56.111Z,98.67
2023-04-19T09:14:24.701Z,92.04
2023-04-19T09:19:25.745Z,93.93
2023-04-19T09:25:18.621Z,92.32
2023-04-19T09:30:43.469Z,93.05
2023-04-19T09:35:48.862Z,93.54
2023-04-19T09:40:50.092Z,94.35
2023-04-19T09:45:50.893Z,95.33
2023-04-19T09:51:04.632Z,93.03
2023-04-19T09:56:11.971Z,90.80
2023-04-19T10:01:16.285Z,90.37
2023-04-19T10:11:26.380Z,91.35
2023-04-19T10:16:29.809Z,87.96
2023-04-19T10:21:31.952Z,86.04
2023-04-19T10:27:07.211Z,84.55
2023-04-19T10:32:12.835Z,87.92
2023-04-19T10:37:13.977Z,81.85
2023-04-19T10:42:14.792Z,76.94
2023-04-19T10:47:40.786Z,73.69
2023-04-19T10:52:41.646Z,78.40
2023-04-19T10:58:05.593Z,73.48
2023-04-19T11:10:15.251Z,74.70
2023-04-19T11:15:16.036Z,73.94
2023-04-19T11:20:16.823Z,59.83
2023-04-19T11:25:20.004Z,59.07
2023-04-19T11:30:27.775Z,55.43
2023-04-19T11:35:29.813Z,53.75
2023-04-19T11:40:31.321Z,51.79
2023-04-19T11:45:38.604Z,52.90
2023-04-19T11:50:43.094Z,53.92
2023-04-19T11:55:50.313Z,52.37
2023-04-19T12:00:51.363Z,50.79
2023-04-19T12:05:56.623Z,50.83
2023-04-19T12:10:59.247Z,52.20
2023-04-19T12:16:00.704Z,48.07
2023-04-19T12:21:03.288Z,46.30
2023-04-19T12:26:07.161Z,44.22
2023-04-19T12:31:07.961Z,44.32
2023-04-19T12:36:09.303Z,44.46
2023-04-19T12:41:10.395Z,46.32
2023-04-19T12:46:11.204Z,44.37
2023-04-19T12:51:12.020Z,44.59
2023-04-19T12:56:14.911Z,46.14
2023-04-19T13:01:16.292Z,45.62
2023-04-19T13:06:17.322Z,45.71
2023-04-19T13:11:22.227Z,45.43
2023-04-19T13:16:23.271Z,43.78
2023-04-19T13:21:24.236Z,43.82
2023-04-19T13:26:25.741Z,43.26
2023-04-19T13:31:26.845Z,43.41
2023-04-19T13:36:27.728Z,42.87
2023-04-19T13:41:28.897Z,46.56
2023-04-19T13:46:30.001Z,42.71
2023-04-19T13:51:42.500Z,42.48
2023-04-19T13:56:52.322Z,39.54
2023-04-19T14:01:55.007Z,41.11
2023-04-19T14:06:55.850Z,39.81
2023-04-19T14:11:56.979Z,39.61
2023-04-19T14:16:57.751Z,40.81
2023-04-19T14:21:59.054Z,37.08
2023-04-19T14:27:10.536Z,36.52
2023-04-19T14:32:24.935Z,34.78
2023-04-19T14:37:27.481Z,36.23
2023-04-19T14:42:28.289Z,35.95
2023-04-19T14:47:29.140Z,34.80
2023-04-19T14:52:30.674Z,33.93
2023-04-19T14:57:31.467Z,34.53
2023-04-19T15:02:32.285Z,34.23
2023-04-19T15:07:33.270Z,36.07
2023-04-19T15:12:34.004Z,34.99
2023-04-19T15:17:35.284Z,37.82
2023-04-19T15:22:36.158Z,35.87
2023-04-19T15:27:37.024Z,34.64
2023-04-19T15:32:37.908Z,34.90
2023-04-19T15:37:40.411Z,35.00
2023-04-19T15:42:41.260Z,32.17
2023-04-19T15:47:42.100Z,33.35
2023-04-19T15:52:42.875Z,32.59
2023-04-19T15:57:44.883Z,32.84
2023-04-19T16:02:47.258Z,34.12
2023-04-19T16:08:01.008Z,32.38
2023-04-19T16:13:05.606Z,32.23
2023-04-19T16:18:06.590Z,32.68
2023-04-19T16:23:07.898Z,33.42
2023-04-19T16:28:08.788Z,32.40
2023-04-19T16:33:10.626Z,35.04
2023-04-19T16:38:11.493Z,34.46
2023-04-19T16:43:12.270Z,34.96
2023-04-19T16:48:13.269Z,35.34
2023-04-19T16:53:14.116Z,34.22
2023-04-19T16:58:14.948Z,35.09
2023-04-19T17:03:15.897Z,35.11
2023-04-19T17:08:16.980Z,35.10
2023-04-19T17:13:17.771Z,34.74
2023-04-19T17:18:18.665Z,34.89
2023-04-19T17:23:20.416Z,35.29
2023-04-19T17:28:21.236Z,36.54
2023-04-19T17:33:22.022Z,36.75
2023-04-19T17:38:22.915Z,37.99
2023-04-19T17:43:27.447Z,38.74
2023-04-19T17:48:28.291Z,39.09
2023-04-19T17:53:29.112Z,38.95
2023-04-19T17:58:30.321Z,40.15
2023-04-19T18:03:31.739Z,39.87
2023-04-19T18:08:32.925Z,39.08
2023-04-19T18:13:36.563Z,39.42
2023-04-19T18:18:37.828Z,38.11
2023-04-19T18:23:38.889Z,38.41
2023-04-19T18:28:39.661Z,38.15
2023-04-19T18:33:40.691Z,38.18
2023-04-19T18:38:41.611Z,37.87
2023-04-19T18:48:43.546Z,37.78
2023-04-19T18:53:45.465Z,37.95
2023-04-19T18:58:49.447Z,38.34
2023-04-19T19:04:10.708Z,38.75
2023-04-19T19:09:25.570Z,38.87
2023-04-19T19:14:26.784Z,39.41
2023-04-19T19:19:28.690Z,39.39
2023-04-19T19:24:29.447Z,40.00
2023-04-19T19:29:30.630Z,39.89
2023-04-19T19:34:33.600Z,39.63
2023-04-19T19:39:39.052Z,39.54
2023-04-19T19:44:39.899Z,40.10
2023-04-19T19:49:57.485Z,40.01
2023-04-19T19:55:14.758Z,40.80
2023-04-19T20:05:20.914Z,40.96
2023-04-19T20:10:22.020Z,41.26
2023-04-19T20:15:22.905Z,41.08
2023-04-19T20:20:23.792Z,41.24
2023-04-19T20:25:24.742Z,42.75
2023-04-19T20:30:25.854Z,41.12
2023-04-19T20:35:26.761Z,41.15
2023-04-19T20:40:29.599Z,41.73
2023-04-19T20:45:30.498Z,41.88
2023-04-19T20:50:31.336Z,42.25
2023-04-19T20:55:32.126Z,41.36
2023-04-19T21:00:32.921Z,41.83
2023-04-19T21:05:34.332Z,42.32
2023-04-19T21:10:35.238Z,42.60
2023-04-19T21:15:36.137Z,42.75
2023-04-19T21:20:37.208Z,42.82
2023-04-19T21:25:37.958Z,43.31
2023-04-19T21:30:40.102Z,43.11
2023-04-19T21:35:40.885Z,43.51
2023-04-19T21:40:41.806Z,44.17
2023-04-19T21:45:42.631Z,43.79
2023-04-19T21:50:43.448Z,44.50
2023-04-19T21:55:46.477Z,44.36
2023-04-19T22:00:48.057Z,44.97
2023-04-19T22:05:48.852Z,45.15
2023-04-19T22:10:49.784Z,45.35
2023-04-19T22:15:51.516Z,45.18
2023-04-19T22:20:53.136Z,45.13
2023-04-19T22:25:54.312Z,45.62
2023-04-19T22:30:55.180Z,45.44
2023-04-19T22:35:56.019Z,45.96
2023-04-19T22:40:56.880Z,46.39
2023-04-19T22:45:57.937Z,46.78
2023-04-19T22:50:59.695Z,46.99
2023-04-19T22:56:00.473Z,47.48
2023-04-19T23:01:02.142Z,47.64
2023-04-19T23:06:03.752Z,47.55
2023-04-19T23:11:05.422Z,47.87
2023-04-19T23:16:10.166Z,48.00
2023-04-19T23:21:11.274Z,47.97
2023-04-19T23:26:12.358Z,48.56
2023-04-19T23:31:13.244Z,48.58
2023-04-19T23:36:14.199Z,49.01
2023-04-19T23:41:15.262Z,49.29
2023-04-19T23:46:16.075Z,49.71
2023-04-19T23:51:16.861Z,50.15
2023-04-19T23:56:17.683Z,50.20
